createdAt,value
2022-10-18T00:00:07.156Z,99.9
2022-10-18T00:02:06.805Z,99.9
2022-10-18T00:04:06.298Z,99.9
2022-10-18T00:06:05.853Z,99.9
2022-10-18T00:08:05.416Z,99.9
2022-10-18T00:10:06.534Z,99.9
2022-10-18T00:14:09.043Z,99.9
2022-10-18T00:16:08.582Z,99.9
2022-10-18T00:18:08.387Z,99.9
2022-10-18T00:20:07.710Z,99.9
2022-10-18T00:22:07.266Z,99.9
2022-10-18T00:24:06.835Z,99.9
2022-10-18T00:26:09.785Z,99.9
2022-10-18T00:28:09.343Z,99.9
2022-10-18T00:30:08.889Z,99.9
2022-10-18T00:39:11.987Z,99.9
2022-10-18T00:41:11.524Z,99.9
2022-10-18T00:43:11.089Z,99.9
2022-10-18T00:47:10.197Z,99.9
2022-10-18T00:49:09.761Z,99.9
2022-10-18T00:51:09.322Z,99.9
2022-10-18T00:53:12.297Z,99.9
2022-10-18T00:55:11.859Z,99.9
2022-10-18T00:57:11.456Z,99.9
2022-10-18T00:59:10.981Z,99.9
2022-10-18T01:01:10.638Z,99.9
2022-10-18T01:03:10.133Z,99.9
2022-10-18T01:05:09.726Z,99.9
2022-10-18T01:07:12.703Z,99.9
2022-10-18T01:09:12.307Z,99.9
2022-10-18T01:11:11.851Z,99.9
2022-10-18T01:13:11.468Z,99.9
2022-10-18T01:15:11.005Z,99.9
2022-10-18T01:19:10.175Z,99.9
2022-10-18T01:21:13.138Z,99.9
2022-10-18T01:23:12.718Z,99.9
2022-10-18T01:25:12.276Z,99.9
2022-10-18T01:27:31.669Z,99.9
2022-10-18T01:29:31.049Z,99.9
2022-10-18T01:31:30.625Z,99.9
2022-10-18T01:33:33.627Z,99.9
2022-10-18T01:35:33.340Z,99.9
2022-10-18T01:37:33.168Z,99.9
2022-10-18T01:39:32.311Z,99.9
2022-10-18T01:41:31.876Z,99.9
2022-10-18T01:43:31.487Z,99.9
2022-10-18T01:45:31.046Z,99.9
2022-10-18T01:47:34.325Z,99.9
2022-10-18T01:49:33.620Z,99.9
2022-10-18T01:51:33.154Z,99.9
2022-10-18T01:53:32.772Z,99.9
2022-10-18T01:55:32.337Z,99.9
2022-10-18T01:57:31.918Z,99.9
2022-10-18T01:59:31.530Z,99.9
2022-10-18T02:03:34.094Z,99.9
2022-10-18T02:05:33.680Z,99.9
2022-10-18T02:07:33.265Z,99.9
2022-10-18T02:09:32.839Z,99.9
2022-10-18T02:11:32.443Z,99.9
2022-10-18T02:13:31.990Z,99.9
2022-10-18T02:15:34.991Z,99.9
2022-10-18T02:19:34.200Z,99.9
2022-10-18T02:20:35.679Z,99.9
2022-10-18T02:22:35.249Z,99.9
2022-10-18T02:26:34.400Z,99.9
2022-10-18T02:30:36.962Z,99.9
2022-10-18T02:32:36.528Z,99.9
2022-10-18T02:34:36.140Z,99.9
2022-10-18T02:36:35.710Z,99.9
2022-10-18T02:38:35.306Z,99.9
2022-10-18T02:40:34.889Z,99.9
2022-10-18T02:42:37.906Z,99.9
2022-10-18T02:44:37.475Z,99.9
2022-10-18T02:48:36.672Z,99.9
2022-10-18T02:58:37.996Z,99.9
2022-10-18T03:00:37.599Z,99.9
2022-10-18T03:02:37.216Z,99.9
2022-10-18T03:04:36.798Z,99.9
2022-10-18T03:06:36.506Z,99.9
2022-10-18T03:08:35.989Z,99.9
2022-10-18T03:14:38.165Z,99.9
2022-10-18T03:15:39.668Z,99.9
2022-10-18T03:17:39.266Z,99.9
2022-10-18T03:19:38.855Z,99.9
2022-10-18T03:21:38.464Z,99.9
2022-10-18T03:23:41.463Z,99.9
2022-10-18T03:25:44.197Z,99.9
2022-10-18T03:27:40.668Z,99.9
2022-10-18T03:29:40.286Z,99.9
2022-10-18T03:31:39.860Z,99.9
2022-10-18T03:33:39.474Z,99.9
2022-10-18T03:37:42.062Z,99.9
2022-10-18T03:39:41.701Z,99.9
2022-10-18T03:41:41.287Z,99.9
2022-10-18T03:43:40.872Z,99.9
2022-10-18T03:45:40.505Z,99.9
2022-10-18T03:47:40.112Z,99.9
2022-10-18T03:49:39.689Z,99.9
2022-10-18T03:51:42.733Z,99.9
2022-10-18T03:53:42.335Z,99.9
2022-10-18T03:55:41.971Z,99.9
2022-10-18T03:57:41.623Z,99.9
2022-10-18T03:59:41.193Z,99.9
2022-10-18T04:01:40.838Z,99.9
2022-10-18T04:03:40.435Z,99.9
2022-10-18T04:05:43.414Z,99.9
2022-10-18T04:07:43.036Z,99.9
2022-10-18T04:09:42.622Z,99.9
2022-10-18T04:12:43.857Z,99.9
2022-10-18T04:14:43.311Z,99.9
2022-10-18T04:16:42.928Z,99.9
2022-10-18T04:18:45.918Z,99.9
2022-10-18T04:20:45.507Z,99.9
2022-10-18T04:22:45.102Z,99.9
2022-10-18T04:24:44.690Z,99.9
2022-10-18T04:26:44.320Z,99.9
2022-10-18T04:28:44.009Z,99.9
2022-10-18T04:30:43.525Z,99.9
2022-10-18T04:32:46.529Z,99.9
2022-10-18T04:34:46.143Z,99.9
2022-10-18T04:36:45.722Z,99.9
2022-10-18T04:38:45.339Z,99.9
2022-10-18T04:40:44.959Z,99.9
2022-10-18T04:42:44.578Z,99.9
2022-10-18T04:44:44.198Z,99.9
2022-10-18T04:46:47.193Z,99.9
2022-10-18T04:52:46.093Z,99.9
2022-10-18T04:54:45.662Z,99.9
2022-10-18T04:56:45.287Z,99.9
2022-10-18T05:00:47.973Z,99.9
2022-10-18T05:02:47.598Z,99.9
2022-10-18T05:04:47.228Z,99.9
2022-10-18T05:07:02.609Z,99.9
2022-10-18T05:09:02.223Z,99.9
2022-10-18T05:11:01.925Z,99.9
2022-10-18T05:13:04.860Z,99.9
2022-10-18T05:15:04.529Z,99.9
2022-10-18T05:19:03.847Z,99.9
2022-10-18T05:21:03.444Z,99.9
2022-10-18T05:23:03.113Z,99.9
2022-10-18T05:25:02.760Z,99.9
2022-10-18T05:27:05.817Z,99.9
2022-10-18T05:29:05.548Z,99.9
2022-10-18T05:31:05.082Z,99.9
2022-10-18T05:33:04.727Z,99.9
2022-10-18T05:37:03.981Z,99.9
2022-10-18T05:39:04.932Z,99.9
2022-10-18T05:41:06.727Z,99.9
2022-10-18T05:45:06.021Z,99.9
2022-10-18T05:49:05.285Z,99.9
2022-10-18T05:51:04.932Z,99.9
2022-10-18T05:57:08.813Z,99.9
2022-10-18T06:00:09.964Z,99.9
2022-10-18T06:02:09.649Z,99.9
2022-10-18T06:04:09.256Z,99.9
2022-10-18T06:06:08.861Z,99.9
2022-10-18T06:08:13.610Z,99.9
2022-10-18T06:12:11.180Z,99.9
2022-10-18T06:14:10.859Z,99.9
2022-10-18T06:16:10.459Z,99.9
2022-10-18T06:18:10.101Z,99.9
2022-10-18T06:20:09.751Z,99.9
2022-10-18T06:22:12.817Z,99.9
2022-10-18T06:24:12.423Z,99.9
2022-10-18T06:26:12.098Z,99.9
2022-10-18T06:28:12.378Z,99.9
2022-10-18T06:30:11.373Z,99.9
2022-10-18T06:34:10.649Z,99.9
2022-10-18T06:36:13.730Z,99.9
2022-10-18T06:38:13.374Z,99.9
2022-10-18T06:40:13.036Z,99.9
2022-10-18T06:42:12.705Z,99.9
2022-10-18T06:44:12.336Z,99.9
2022-10-18T06:46:12.003Z,99.9
2022-10-18T06:48:11.689Z,99.9
2022-10-18T06:52:14.393Z,99.9
2022-10-18T06:54:18.039Z,99.9
2022-10-18T06:55:15.566Z,99.9
2022-10-18T06:57:15.235Z,99.9
2022-10-18T06:59:14.890Z,99.9
2022-10-18T07:01:14.603Z,99.9
2022-10-18T07:03:17.620Z,99.9
2022-10-18T07:07:16.975Z,99.9
2022-10-18T07:09:16.638Z,99.9
2022-10-18T07:11:16.346Z,99.9
2022-10-18T07:17:18.677Z,99.9
2022-10-18T07:19:18.363Z,99.9
2022-10-18T07:21:18.021Z,99.9
2022-10-18T07:23:17.678Z,99.9
2022-10-18T07:25:17.348Z,99.9
2022-10-18T07:27:17.001Z,99.9
2022-10-18T07:29:16.676Z,99.9
2022-10-18T07:31:19.759Z,99.9
2022-10-18T07:33:19.421Z,99.9
2022-10-18T07:35:19.734Z,99.9
2022-10-18T07:37:19.533Z,99.9
2022-10-18T07:39:19.082Z,99.9
2022-10-18T07:41:18.742Z,99.9
2022-10-18T07:43:18.417Z,99.9
2022-10-18T07:45:21.541Z,99.9
2022-10-18T07:49:20.861Z,99.9
2022-10-18T07:50:22.392Z,99.9
2022-10-18T07:52:22.053Z,99.9
2022-10-18T07:54:21.748Z,99.9
2022-10-18T07:56:21.586Z,99.9
2022-10-18T07:58:24.506Z,99.9
2022-10-18T08:02:23.792Z,99.9
2022-10-18T08:04:23.486Z,99.9
2022-10-18T08:06:23.131Z,99.9
2022-10-18T08:08:23.464Z,99.9
2022-10-18T08:10:30.322Z,99.9
2022-10-18T08:12:25.470Z,99.9
2022-10-18T08:14:25.118Z,99.9
2022-10-18T08:16:24.825Z,99.9
2022-10-18T08:18:24.417Z,99.9
2022-10-18T08:20:31.193Z,99.9
2022-10-18T08:22:30.164Z,99.9
2022-10-18T08:24:23.337Z,99.9
2022-10-18T08:26:26.393Z,99.9
2022-10-18T08:28:26.126Z,99.9
2022-10-18T08:32:25.318Z,99.9
2022-10-18T08:34:25.023Z,99.9
2022-10-18T08:38:24.173Z,99.9
2022-10-18T08:40:27.236Z,99.9
2022-10-18T08:42:26.855Z,99.9
2022-10-18T08:44:26.465Z,99.9
2022-10-18T08:46:47.928Z,99.9
2022-10-18T08:48:47.575Z,99.9
2022-10-18T08:50:47.157Z,99.9
2022-10-18T08:52:50.197Z,99.9
2022-10-18T08:54:49.825Z,99.9
2022-10-18T08:56:49.442Z,99.9
2022-10-18T08:58:49.043Z,99.9
2022-10-18T09:00:48.686Z,99.9
2022-10-18T09:02:48.315Z,99.9
2022-10-18T09:04:47.888Z,99.9
2022-10-18T09:06:50.910Z,99.9
2022-10-18T09:08:50.520Z,99.9
2022-10-18T09:10:50.196Z,99.9
2022-10-18T09:12:49.837Z,99.9
2022-10-18T09:14:49.400Z,99.9
2022-10-18T09:16:48.965Z,99.9
2022-10-18T09:18:48.575Z,99.9
2022-10-18T09:20:51.595Z,99.9
2022-10-18T09:22:51.198Z,99.9
2022-10-18T09:24:50.773Z,99.9
2022-10-18T09:26:50.369Z,99.9
2022-10-18T09:28:50.013Z,99.9
2022-10-18T09:30:49.575Z,99.9
2022-10-18T09:34:52.180Z,99.9
2022-10-18T09:36:51.782Z,99.9
2022-10-18T09:38:51.366Z,99.9
2022-10-18T09:39:52.840Z,99.9
2022-10-18T09:41:52.455Z,99.9
2022-10-18T09:43:52.031Z,99.9
2022-10-18T09:45:51.600Z,84.8
2022-10-18T09:47:54.601Z,81.5
2022-10-18T09:49:54.170Z,79.8
2022-10-18T09:51:53.705Z,78.6
2022-10-18T09:53:53.240Z,67.2
2022-10-18T09:55:52.747Z,67.6
2022-10-18T09:57:52.210Z,67.7
2022-10-18T09:59:51.589Z,68.4
2022-10-18T10:01:54.475Z,65.9
2022-10-18T10:03:53.882Z,65.3
2022-10-18T10:05:53.175Z,63.3
2022-10-18T10:07:52.446Z,61.8
2022-10-18T10:09:51.699Z,62
2022-10-18T10:13:50.164Z,59.4
2022-10-18T10:15:52.738Z,59.2
2022-10-18T10:19:50.994Z,59.1
2022-10-18T10:21:50.132Z,59.1
2022-10-18T10:23:49.262Z,59
2022-10-18T10:25:48.373Z,58.5
2022-10-18T10:29:50.000Z,57.4
2022-10-18T10:31:49.000Z,57.2
2022-10-18T10:33:48.076Z,56.9
2022-10-18T10:34:49.265Z,56.6
2022-10-18T10:36:48.334Z,56.4
2022-10-18T10:40:46.433Z,56.4
2022-10-18T10:42:48.844Z,55.8
2022-10-18T10:44:47.888Z,56
2022-10-18T10:46:47.063Z,56.1
2022-10-18T10:48:45.935Z,55.9
2022-10-18T10:50:44.946Z,55.5
2022-10-18T10:52:43.960Z,55.8
2022-10-18T10:54:44.681Z,55.1
2022-10-18T10:56:45.348Z,55.4
2022-10-18T11:04:41.318Z,58.5
2022-10-18T11:06:40.312Z,58.5
2022-10-18T11:08:39.410Z,58.7
2022-10-18T11:10:41.653Z,59
2022-10-18T11:12:40.644Z,58.9
2022-10-18T11:14:39.635Z,59.2
2022-10-18T11:16:38.619Z,58.7
2022-10-18T11:18:37.594Z,58.5
2022-10-18T11:20:36.584Z,58.4
2022-10-18T11:22:35.562Z,58.3
2022-10-18T11:24:37.931Z,57.1
2022-10-18T11:26:40.930Z,56.3
2022-10-18T11:28:36.049Z,55.8
2022-10-18T11:33:56.722Z,55.3
2022-10-18T11:35:33.964Z,55
2022-10-18T11:37:38.692Z,54.8
2022-10-18T11:39:36.738Z,54.3
2022-10-18T11:41:35.703Z,54.1
2022-10-18T11:43:57.208Z,54.1
2022-10-18T11:45:33.634Z,54.2
2022-10-18T11:47:32.903Z,54.3
2022-10-18T11:49:31.598Z,54.5
2022-10-18T11:55:33.134Z,54.5
2022-10-18T11:57:31.074Z,54.3
2022-10-18T12:01:28.945Z,54.3
2022-10-18T12:05:30.241Z,54
2022-10-18T12:07:32.335Z,54.2
2022-10-18T12:09:28.226Z,54.3
2022-10-18T12:11:27.217Z,54.1
2022-10-18T12:13:26.224Z,54.3
2022-10-18T12:15:25.210Z,54.3
2022-10-18T12:17:51.178Z,54.7
2022-10-18T12:19:27.294Z,54.7
2022-10-18T12:21:26.020Z,55
2022-10-18T12:23:24.623Z,55.3
2022-10-18T12:25:45.527Z,55.5
2022-10-18T12:27:44.552Z,55.6
2022-10-18T12:29:45.453Z,55.8
2022-10-18T12:35:43.975Z,58.1
2022-10-18T12:41:41.026Z,57.4
2022-10-18T12:43:40.060Z,56.8
2022-10-18T12:45:42.425Z,56.2
2022-10-18T12:47:41.490Z,56.1
2022-10-18T12:49:42.675Z,56
2022-10-18T12:51:39.566Z,56.1
2022-10-18T12:53:38.609Z,56
2022-10-18T12:55:37.736Z,55.9
2022-10-18T12:57:36.714Z,56
2022-10-18T12:59:39.131Z,55.4
2022-10-18T13:01:38.257Z,54.5
2022-10-18T13:03:37.261Z,54.3
2022-10-18T13:05:41.328Z,53.9
2022-10-18T13:09:34.438Z,53.5
2022-10-18T13:11:33.516Z,53.6
2022-10-18T13:18:35.275Z,53.2
2022-10-18T13:20:34.360Z,53
2022-10-18T13:22:33.402Z,52.9
2022-10-18T13:24:32.496Z,51.8
2022-10-18T13:26:34.917Z,49.6
2022-10-18T13:28:34.061Z,48.9
2022-10-18T13:30:33.074Z,48.5
2022-10-18T13:32:32.695Z,48.3
2022-10-18T13:34:31.257Z,48.2
2022-10-18T13:36:30.345Z,48.1
2022-10-18T13:38:29.427Z,48.3
2022-10-18T13:40:31.917Z,48.3
2022-10-18T13:42:31.395Z,48.4
2022-10-18T13:44:30.126Z,48.4
2022-10-18T13:46:29.257Z,48.2
2022-10-18T13:48:28.342Z,48.2
2022-10-18T13:50:27.489Z,48.4
2022-10-18T13:52:26.616Z,49
2022-10-18T13:54:29.101Z,49.3
2022-10-18T13:56:28.250Z,49.1
2022-10-18T13:58:27.365Z,48.9
2022-10-18T14:00:26.534Z,48
2022-10-18T14:02:42.818Z,47.7
2022-10-18T14:04:24.825Z,48.8
2022-10-18T14:06:24.116Z,52.9
2022-10-18T14:08:26.528Z,54.9
2022-10-18T14:10:43.382Z,55.6
2022-10-18T14:13:26.087Z,56.5
2022-10-18T14:15:25.276Z,56.9
2022-10-18T14:17:24.439Z,57.5
2022-10-18T14:19:23.608Z,58.3
2022-10-18T14:21:30.990Z,60.9
2022-10-18T14:23:25.362Z,65
2022-10-18T14:25:24.543Z,71.9
2022-10-18T14:29:23.085Z,99.6
2022-10-18T14:33:21.564Z,67.9
2022-10-18T14:35:32.592Z,62.8
2022-10-18T14:37:23.425Z,62.4
2022-10-18T14:39:22.689Z,61.4
2022-10-18T14:41:21.924Z,60.9
2022-10-18T14:43:21.169Z,61
2022-10-18T14:45:20.465Z,60.9
2022-10-18T14:47:19.715Z,60.9
2022-10-18T14:49:22.452Z,61.1
2022-10-18T14:51:21.726Z,61.6
2022-10-18T14:53:20.972Z,61.9
2022-10-18T14:55:20.252Z,61.7
2022-10-18T14:57:19.552Z,61.4
2022-10-18T14:59:18.830Z,60.7
2022-10-18T15:01:18.281Z,60.2
2022-10-18T15:03:20.844Z,60.2
2022-10-18T15:05:20.178Z,60.5
2022-10-18T15:07:19.552Z,60.1
2022-10-18T15:08:20.947Z,60.1
2022-10-18T15:10:20.304Z,59.9
2022-10-18T15:12:19.701Z,59.5
2022-10-18T15:14:19.105Z,59.1
2022-10-18T15:16:21.886Z,58.7
2022-10-18T15:18:21.355Z,58.5
2022-10-18T15:20:20.678Z,58.5
2022-10-18T15:22:31.293Z,58.6
2022-10-18T15:26:18.953Z,62.1
2022-10-18T15:28:18.407Z,73.9
2022-10-18T15:30:21.264Z,95.4
2022-10-18T15:32:20.695Z,96.9
2022-10-18T15:34:20.171Z,98
2022-10-18T15:36:19.587Z,98.3
2022-10-18T15:38:19.064Z,99
2022-10-18T15:40:18.532Z,99.5
2022-10-18T15:42:17.991Z,99.5
2022-10-18T15:44:20.993Z,99.9
2022-10-18T15:46:20.361Z,99.9
2022-10-18T15:48:19.864Z,99.9
2022-10-18T15:50:19.324Z,99.9
2022-10-18T15:52:18.828Z,99.9
2022-10-18T15:54:19.351Z,99.9
2022-10-18T15:56:17.822Z,99.9
2022-10-18T15:58:20.785Z,99.9
2022-10-18T16:00:20.279Z,99.9
2022-10-18T16:02:19.810Z,99.9
2022-10-18T16:04:35.210Z,99.9
2022-10-18T16:06:34.735Z,99.9
2022-10-18T16:08:34.254Z,99.9
2022-10-18T16:10:37.248Z,99.9
2022-10-18T16:16:35.889Z,99.9
2022-10-18T16:18:35.472Z,99.9
2022-10-18T16:20:35.028Z,99.9
2022-10-18T16:32:35.918Z,99.9
2022-10-18T16:34:35.529Z,99.9
2022-10-18T16:36:35.117Z,99.9
2022-10-18T16:38:38.140Z,99.9
2022-10-18T16:40:40.429Z,99.9
2022-10-18T16:42:37.380Z,99.9
2022-10-18T16:44:36.993Z,99.9
2022-10-18T16:46:36.620Z,99.9
2022-10-18T16:48:36.278Z,99.9
2022-10-18T16:50:36.022Z,99.9
2022-10-18T16:52:38.942Z,99.9
2022-10-18T16:54:38.630Z,99.9
2022-10-18T16:56:38.246Z,99.9
2022-10-18T16:57:39.759Z,99.9
2022-10-18T16:59:39.408Z,99.9
2022-10-18T17:01:39.099Z,99.9
2022-10-18T17:03:38.699Z,99.9
2022-10-18T17:05:41.708Z,99.9
2022-10-18T17:07:41.381Z,99.9
2022-10-18T17:09:41.029Z,99.9
2022-10-18T17:11:40.691Z,99.9
2022-10-18T17:13:40.337Z,99.9
2022-10-18T17:15:40.006Z,99.9
2022-10-18T17:17:39.650Z,99.9
2022-10-18T17:19:42.683Z,99.9
2022-10-18T17:21:43.901Z,99.9
2022-10-18T17:25:52.670Z,99.9
2022-10-18T17:27:42.814Z,99.9
2022-10-18T17:29:42.435Z,99.9
2022-10-18T17:31:42.137Z,99.9
2022-10-18T17:33:45.206Z,99.9
2022-10-18T17:35:44.831Z,99.9
2022-10-18T17:37:46.035Z,99.9
2022-10-18T17:39:44.168Z,99.9
2022-10-18T17:41:43.815Z,99.9
2022-10-18T17:45:43.177Z,99.9
2022-10-18T17:47:46.269Z,99.9
2022-10-18T17:49:45.956Z,99.9
2022-10-18T17:51:45.595Z,99.9
2022-10-18T17:52:47.134Z,99.9
2022-10-18T17:54:46.837Z,99.9
2022-10-18T17:56:48.140Z,99.9
2022-10-18T17:58:46.195Z,99.9
2022-10-18T18:00:49.281Z,99.9
2022-10-18T18:02:49.036Z,99.9
2022-10-18T18:04:48.661Z,99.9
2022-10-18T18:06:48.363Z,99.9
2022-10-18T18:08:48.042Z,99.9
2022-10-18T18:12:47.441Z,99.9
2022-10-18T18:14:50.519Z,99.9
2022-10-18T18:16:50.239Z,99.9
2022-10-18T18:18:49.948Z,99.9
2022-10-18T18:20:50.627Z,99.9
2022-10-18T18:22:49.349Z,99.9
2022-10-18T18:24:49.042Z,99.9
2022-10-18T18:26:48.792Z,99.9
2022-10-18T18:28:51.983Z,99.9
2022-10-18T18:30:51.597Z,99.9
2022-10-18T18:32:51.438Z,99.9
2022-10-18T18:34:51.001Z,99.9
2022-10-18T18:36:50.713Z,99.9
2022-10-18T18:38:52.041Z,99.9
2022-10-18T18:40:50.135Z,99.9
2022-10-18T18:43:12.107Z,99.9
2022-10-18T18:44:52.975Z,99.9
2022-10-18T18:46:52.671Z,99.9
2022-10-18T18:47:54.234Z,99.9
2022-10-18T18:49:53.945Z,99.9
2022-10-18T18:51:53.683Z,99.9
2022-10-18T18:53:53.390Z,99.9
2022-10-18T18:57:56.238Z,99.9
2022-10-18T18:59:55.961Z,99.9
2022-10-18T19:01:55.817Z,99.9
2022-10-18T19:03:55.451Z,99.9
2022-10-18T19:05:58.428Z,99.9
2022-10-18T19:07:55.015Z,99.9
2022-10-18T19:09:58.222Z,99.9
2022-10-18T19:15:57.484Z,99.9
2022-10-18T19:21:56.685Z,99.9
2022-10-18T19:23:59.981Z,99.9
2022-10-18T19:25:59.673Z,99.9
2022-10-18T19:27:59.461Z,99.9
2022-10-18T19:29:59.263Z,99.9
2022-10-18T19:31:59.019Z,99.9
2022-10-18T19:33:59.562Z,99.9
2022-10-18T19:35:58.491Z,99.9
2022-10-18T19:38:01.674Z,99.9
2022-10-18T19:40:01.421Z,99.9
2022-10-18T19:42:01.152Z,99.9
2022-10-18T19:44:22.887Z,99.9
2022-10-18T19:46:22.590Z,99.9
2022-10-18T19:48:22.405Z,99.9
2022-10-18T19:54:25.148Z,99.9
2022-10-18T19:56:24.963Z,99.9
2022-10-18T19:58:24.838Z,99.9
2022-10-18T20:00:24.555Z,99.9
2022-10-18T20:02:24.315Z,99.9
2022-10-18T20:10:27.020Z,99.9
2022-10-18T20:12:26.759Z,99.9
2022-10-18T20:14:26.523Z,99.9
2022-10-18T20:16:28.442Z,99.9
2022-10-18T20:18:29.656Z,99.9
2022-10-18T20:20:29.478Z,99.9
2022-10-18T20:22:29.253Z,99.9
2022-10-18T20:24:29.025Z,99.9
2022-10-18T20:26:28.849Z,99.9
2022-10-18T20:28:28.689Z,99.9
2022-10-18T20:30:28.472Z,99.9
2022-10-18T20:34:31.567Z,99.9
2022-10-18T20:36:31.309Z,99.9
2022-10-18T20:41:32.505Z,99.9
2022-10-18T20:43:32.355Z,99.9
2022-10-18T20:45:35.699Z,99.9
2022-10-18T20:47:35.936Z,99.9
2022-10-18T20:49:35.422Z,99.9
2022-10-18T20:51:35.256Z,99.9
2022-10-18T20:53:34.990Z,99.9
2022-10-18T20:55:34.776Z,99.9
2022-10-18T20:57:36.531Z,99.9
2022-10-18T20:59:37.880Z,99.9
2022-10-18T21:01:37.790Z,99.9
2022-10-18T21:05:37.463Z,99.9
2022-10-18T21:07:37.378Z,99.9
2022-10-18T21:11:36.930Z,99.9
2022-10-18T21:13:40.297Z,99.9
2022-10-18T21:15:40.065Z,99.9
2022-10-18T21:17:39.926Z,99.9
2022-10-18T21:19:39.791Z,99.9
2022-10-18T21:21:39.662Z,99.9
2022-10-18T21:23:39.541Z,99.9
2022-10-18T21:25:39.396Z,99.9
2022-10-18T21:27:42.708Z,99.9
2022-10-18T21:29:42.511Z,99.9
2022-10-18T21:31:42.346Z,99.9
2022-10-18T21:32:44.017Z,99.9
2022-10-18T21:34:43.809Z,99.9
2022-10-18T21:36:43.677Z,99.9
2022-10-18T21:38:43.526Z,99.9
2022-10-18T21:40:46.709Z,99.9
2022-10-18T21:42:46.568Z,99.9
2022-10-18T21:44:46.424Z,99.9
2022-10-18T21:46:46.306Z,99.9
2022-10-18T21:48:46.163Z,99.9
2022-10-18T21:50:46.022Z,99.9
2022-10-18T21:52:45.911Z,99.9
2022-10-18T21:54:49.172Z,99.9
2022-10-18T21:56:49.057Z,99.9
2022-10-18T21:58:48.903Z,99.9
2022-10-18T22:00:48.835Z,99.9
2022-10-18T22:02:48.673Z,99.9
2022-10-18T22:04:48.502Z,99.9
2022-10-18T22:06:48.430Z,99.9
2022-10-18T22:08:51.775Z,99.9
2022-10-18T22:10:51.653Z,99.9
2022-10-18T22:12:51.527Z,99.9
2022-10-18T22:14:51.393Z,99.9
2022-10-18T22:16:51.287Z,99.9
2022-10-18T22:18:51.156Z,99.9
2022-10-18T22:20:51.021Z,99.9
2022-10-18T22:22:54.437Z,99.9
2022-10-18T22:24:54.265Z,99.9
2022-10-18T22:26:54.152Z,99.9
2022-10-18T22:27:55.944Z,99.9
2022-10-18T22:29:55.589Z,99.9
2022-10-18T22:31:55.462Z,99.9
2022-10-18T22:33:55.350Z,99.9
2022-10-18T22:35:58.723Z,99.9
2022-10-18T22:44:01.103Z,99.9
2022-10-18T22:45:58.140Z,99.9
2022-10-18T22:47:58.039Z,99.9
2022-10-18T22:50:01.446Z,99.9
2022-10-18T22:52:01.297Z,99.9
2022-10-18T22:54:01.161Z,99.9
2022-10-18T22:56:01.051Z,99.9
2022-10-18T22:58:00.915Z,99.9
2022-10-18T23:00:00.844Z,99.9
2022-10-18T23:02:00.717Z,99.9
2022-10-18T23:04:04.084Z,99.9
2022-10-18T23:06:03.971Z,99.9
2022-10-18T23:08:05.435Z,99.9
2022-10-18T23:12:05.209Z,99.9
2022-10-18T23:14:05.080Z,99.9
2022-10-18T23:16:04.973Z,99.9
2022-10-18T23:18:08.355Z,99.9
2022-10-18T23:20:08.250Z,99.9
2022-10-18T23:22:08.150Z,99.9
2022-10-18T23:32:33.601Z,99.9
2022-10-18T23:34:33.257Z,99.9
2022-10-18T23:36:33.247Z,99.9
2022-10-18T23:38:33.050Z,99.9
2022-10-18T23:40:32.933Z,99.9
2022-10-18T23:42:32.802Z,99.9
2022-10-18T23:44:36.198Z,99.9
2022-10-18T23:46:36.108Z,99.9
2022-10-18T23:48:35.982Z,99.9
2022-10-18T23:50:36.018Z,99.9
2022-10-18T23:52:35.786Z,99.9
2022-10-18T23:54:35.711Z,99.9
2022-10-18T23:56:35.530Z,99.9
2022-10-18T23:58:38.937Z,99.9
